createdAt,value
2019-02-04T00:00:02.209Z,17.76
2019-02-04T00:01:02.214Z,17.74
2019-02-04T00:02:02.178Z,17.74
2019-02-04T00:03:02.177Z,17.74
2019-02-04T00:04:02.138Z,17.74
2019-02-04T00:05:02.374Z,17.73
2019-02-04T00:06:02.424Z,17.73
2019-02-04T00:07:02.117Z,17.71
2019-02-04T00:08:02.024Z,17.71
2019-02-04T00:09:02.240Z,17.7
2019-02-04T00:10:02.173Z,17.7
2019-02-04T00:11:02.133Z,17.71
2019-02-04T00:12:02.268Z,17.7
2019-02-04T00:13:02.103Z,17.68
2019-02-04T00:14:02.304Z,17.68
2019-02-04T00:15:02.313Z,17.67
2019-02-04T00:16:02.068Z,17.67
2019-02-04T00:17:02.492Z,17.67
2019-02-04T00:18:02.341Z,17.66
2019-02-04T00:19:02.178Z,17.65
2019-02-04T00:20:02.078Z,17.65
2019-02-04T00:21:02.683Z,17.64
2019-02-04T00:22:03.396Z,17.65
2019-02-04T00:23:02.386Z,17.64
2019-02-04T00:24:02.472Z,17.64
2019-02-04T00:25:02.505Z,17.63
2019-02-04T00:26:03.895Z,17.63
2019-02-04T00:27:02.620Z,17.62
2019-02-04T00:28:02.547Z,17.61
2019-02-04T00:29:02.101Z,17.62
2019-02-04T00:30:04.128Z,17.62
2019-02-04T00:31:05.472Z,17.6
2019-02-04T00:32:02.131Z,17.6
2019-02-04T00:33:02.469Z,17.6
2019-02-04T00:34:02.329Z,17.59
2019-02-04T00:35:02.221Z,17.58
2019-02-04T00:36:04.018Z,17.58
2019-02-04T00:37:02.450Z,17.58
2019-02-04T00:38:04.188Z,17.56
2019-02-04T00:39:03.856Z,17.56
2019-02-04T00:40:04.038Z,17.55
2019-02-04T00:41:03.241Z,17.55
2019-02-04T00:42:02.309Z,17.55
2019-02-04T00:43:02.124Z,17.54
2019-02-04T00:44:02.348Z,17.55
2019-02-04T00:45:02.752Z,17.54
2019-02-04T00:46:04.144Z,17.54
2019-02-04T00:47:02.183Z,17.53
2019-02-04T00:48:02.377Z,17.52
2019-02-04T00:49:01.933Z,17.5
2019-02-04T00:50:02.119Z,17.51
2019-02-04T00:51:02.283Z,17.5
2019-02-04T00:52:02.176Z,17.5
2019-02-04T00:53:02.080Z,17.49
2019-02-04T00:54:04.207Z,17.49
2019-02-04T00:55:02.122Z,17.47
2019-02-04T00:56:02.612Z,17.48
2019-02-04T00:57:02.440Z,17.47
2019-02-04T00:58:02.634Z,17.48
2019-02-04T00:59:02.147Z,17.47
2019-02-04T01:00:02.258Z,17.47
2019-02-04T01:01:02.110Z,17.45
2019-02-04T01:02:02.709Z,17.46
2019-02-04T01:03:03.075Z,17.44
2019-02-04T01:04:02.175Z,17.44
2019-02-04T01:05:02.476Z,17.44
2019-02-04T01:06:02.218Z,17.44
2019-02-04T01:07:02.507Z,17.43
2019-02-04T01:08:02.223Z,17.42
2019-02-04T01:09:02.078Z,17.42
2019-02-04T01:10:02.431Z,17.41
2019-02-04T01:11:02.308Z,17.42
2019-02-04T01:12:02.105Z,17.41
2019-02-04T01:13:02.344Z,17.41
2019-02-04T01:14:01.993Z,17.4
2019-02-04T01:15:02.511Z,17.4
2019-02-04T01:16:01.937Z,17.38
2019-02-04T01:17:04.138Z,17.38
2019-02-04T01:18:02.158Z,17.39
2019-02-04T01:19:02.080Z,17.39
2019-02-04T01:20:02.299Z,17.38
2019-02-04T01:21:02.306Z,17.37
2019-02-04T01:22:02.690Z,17.37
2019-02-04T01:23:02.228Z,17.36
2019-02-04T01:24:02.168Z,17.36
2019-02-04T01:25:03.228Z,17.36
2019-02-04T01:26:02.193Z,17.35
2019-02-04T01:27:02.342Z,17.35
2019-02-04T01:28:02.362Z,17.35
2019-02-04T01:29:01.908Z,17.34
2019-02-04T01:30:02.713Z,17.34
2019-02-04T01:31:02.677Z,17.33
2019-02-04T01:32:02.378Z,17.33
2019-02-04T01:33:03.005Z,17.33
2019-02-04T01:34:01.939Z,17.33
2019-02-04T01:35:02.302Z,17.33
2019-02-04T01:36:02.227Z,17.32
2019-02-04T01:37:02.059Z,17.31
2019-02-04T01:38:03.101Z,17.3
2019-02-04T01:39:02.322Z,17.3
2019-02-04T01:40:04.319Z,17.3
2019-02-04T01:41:03.215Z,17.29
2019-02-04T01:42:02.182Z,17.29
2019-02-04T01:43:01.950Z,17.29
2019-02-04T01:44:02.520Z,17.29
2019-02-04T01:45:02.023Z,17.29
2019-02-04T01:46:03.375Z,17.29
2019-02-04T01:47:02.371Z,17.27
2019-02-04T01:48:02.106Z,17.27
2019-02-04T01:49:03.373Z,17.28
2019-02-04T01:50:02.300Z,17.27
2019-02-04T01:51:01.953Z,17.26
2019-02-04T01:52:02.029Z,17.25
2019-02-04T01:53:02.152Z,17.26
2019-02-04T01:54:02.006Z,17.24
2019-02-04T01:55:02.084Z,17.23
2019-02-04T01:56:02.023Z,17.24
2019-02-04T01:57:03.842Z,17.23
2019-02-04T01:58:02.334Z,17.23
2019-02-04T01:59:02.980Z,17.23
2019-02-04T02:00:02.764Z,17.23
2019-02-04T02:01:02.002Z,17.22
2019-02-04T02:02:01.965Z,17.22
2019-02-04T02:03:02.493Z,17.21
2019-02-04T02:04:02.723Z,17.21
2019-02-04T02:05:03.798Z,17.19
2019-02-04T02:06:01.874Z,17.21
2019-02-04T02:07:03.631Z,17.19
2019-02-04T02:08:02.040Z,17.2
2019-02-04T02:09:02.314Z,17.19
2019-02-04T02:10:03.994Z,17.18
2019-02-04T02:11:02.358Z,17.17
2019-02-04T02:12:02.265Z,17.17
2019-02-04T02:13:03.957Z,17.17
2019-02-04T02:14:02.358Z,17.17
2019-02-04T02:15:02.925Z,17.17
2019-02-04T02:16:02.186Z,17.16
2019-02-04T02:17:01.984Z,17.16
2019-02-04T02:18:02.026Z,17.15
2019-02-04T02:19:02.182Z,17.15
2019-02-04T02:20:02.440Z,17.16
2019-02-04T02:21:04.528Z,17.14
2019-02-04T02:22:02.159Z,17.14
2019-02-04T02:23:02.547Z,17.13
2019-02-04T02:24:02.761Z,17.13
2019-02-04T02:25:02.655Z,17.11
2019-02-04T02:26:02.010Z,17.11
2019-02-04T02:27:03.385Z,17.1
2019-02-04T02:28:02.190Z,17.1
2019-02-04T02:29:03.670Z,17.12
2019-02-04T02:30:02.307Z,17.11
2019-02-04T02:31:01.941Z,17.1
2019-02-04T02:32:02.114Z,17.1
2019-02-04T02:33:02.436Z,17.1
2019-02-04T02:34:02.008Z,17.1
2019-02-04T02:35:02.156Z,17.1
2019-02-04T02:36:02.845Z,17.09
2019-02-04T02:37:04.336Z,17.08
2019-02-04T02:38:02.153Z,17.09
2019-02-04T02:39:02.145Z,17.08
2019-02-04T02:40:02.477Z,17.08
2019-02-04T02:41:02.425Z,17.06
2019-02-04T02:42:02.045Z,17.06
2019-02-04T02:43:02.027Z,17.06
2019-02-04T02:44:01.929Z,17.07
2019-02-04T02:45:02.295Z,17.05
2019-02-04T02:46:02.204Z,17.04
2019-02-04T02:47:02.038Z,17.05
2019-02-04T02:48:02.494Z,17.04
2019-02-04T02:49:02.643Z,17.04
2019-02-04T02:50:02.323Z,17.04
2019-02-04T02:51:02.236Z,17.04
2019-02-04T02:52:03.630Z,17.03
2019-02-04T02:53:02.443Z,17.03
2019-02-04T02:54:03.667Z,17.02
2019-02-04T02:55:02.073Z,17.03
2019-02-04T02:56:02.094Z,17.03
2019-02-04T02:57:02.221Z,17.02
2019-02-04T02:58:02.008Z,17.01
2019-02-04T02:59:02.386Z,17.01
2019-02-04T03:00:03.586Z,17
2019-02-04T03:01:02.516Z,17
2019-02-04T03:02:02.506Z,17.01
2019-02-04T03:03:02.287Z,16.99
2019-02-04T03:04:02.250Z,16.99
2019-02-04T03:05:02.248Z,16.99
2019-02-04T03:06:02.364Z,17
2019-02-04T03:07:02.574Z,16.98
2019-02-04T03:08:03.742Z,16.98
2019-02-04T03:09:02.348Z,16.98
2019-02-04T03:10:02.223Z,16.98
2019-02-04T03:11:02.366Z,16.98
2019-02-04T03:12:02.475Z,16.98
2019-02-04T03:13:02.339Z,16.97
2019-02-04T03:14:02.111Z,16.97
2019-02-04T03:15:02.311Z,16.97
2019-02-04T03:16:03.702Z,16.97
2019-02-04T03:17:03.481Z,16.96
2019-02-04T03:18:02.326Z,16.94
2019-02-04T03:19:03.177Z,16.94
2019-02-04T03:20:02.355Z,16.94
2019-02-04T03:21:02.053Z,16.95
2019-02-04T03:22:04.074Z,16.94
2019-02-04T03:23:02.141Z,16.94
2019-02-04T03:24:03.758Z,16.94
2019-02-04T03:25:01.904Z,16.93
2019-02-04T03:26:02.444Z,16.92
2019-02-04T03:27:01.851Z,16.92
2019-02-04T03:28:02.072Z,16.91
2019-02-04T03:29:02.323Z,16.9
2019-02-04T03:30:02.273Z,16.92
2019-02-04T03:31:02.251Z,16.92
2019-02-04T03:32:03.823Z,16.91
2019-02-04T03:33:02.424Z,16.91
2019-02-04T03:34:02.121Z,16.9
2019-02-04T03:35:01.945Z,16.9
2019-02-04T03:36:02.143Z,16.89
2019-02-04T03:37:02.593Z,16.9
2019-02-04T03:38:02.189Z,16.9
2019-02-04T03:39:02.199Z,16.88
2019-02-04T03:40:02.106Z,16.88
2019-02-04T03:41:02.422Z,16.88
2019-02-04T03:42:02.516Z,16.88
2019-02-04T03:43:03.850Z,16.87
2019-02-04T03:44:02.128Z,16.87
2019-02-04T03:45:02.103Z,16.86
2019-02-04T03:46:02.436Z,16.85
2019-02-04T03:47:02.193Z,16.86
2019-02-04T03:48:09.949Z,16.85
2019-02-04T03:49:02.453Z,16.85
2019-02-04T03:50:02.256Z,16.85
2019-02-04T03:51:02.508Z,16.85
2019-02-04T03:52:01.977Z,16.85
2019-02-04T03:53:02.293Z,16.85
2019-02-04T03:54:02.367Z,16.85
2019-02-04T03:55:02.001Z,16.85
2019-02-04T03:56:02.073Z,16.84
2019-02-04T03:57:01.873Z,16.84
2019-02-04T03:58:02.539Z,16.85
2019-02-04T03:59:01.961Z,16.83
2019-02-04T04:00:02.249Z,16.82
2019-02-04T04:01:02.274Z,16.83
2019-02-04T04:02:01.898Z,16.82
2019-02-04T04:03:02.281Z,16.81
2019-02-04T04:04:02.249Z,16.8
2019-02-04T04:05:02.217Z,16.81
2019-02-04T04:06:02.160Z,16.8
2019-02-04T04:07:01.966Z,16.79
2019-02-04T04:08:02.133Z,16.8
2019-02-04T04:09:02.303Z,16.79
2019-02-04T04:10:02.494Z,16.79
2019-02-04T04:11:02.251Z,16.79
2019-02-04T04:12:01.867Z,16.79
2019-02-04T04:13:02.209Z,16.79
2019-02-04T04:14:02.034Z,16.78
2019-02-04T04:15:01.911Z,16.78
2019-02-04T04:16:02.651Z,16.77
2019-02-04T04:17:02.772Z,16.77
2019-02-04T04:18:02.002Z,16.76
2019-02-04T04:19:02.625Z,16.76
2019-02-04T04:20:02.281Z,16.77
2019-02-04T04:21:03.895Z,16.76
2019-02-04T04:22:02.110Z,16.76
2019-02-04T04:23:02.228Z,16.75
2019-02-04T04:24:02.078Z,16.75
2019-02-04T04:25:02.401Z,16.75
2019-02-04T04:26:02.345Z,16.74
2019-02-04T04:27:03.810Z,16.73
2019-02-04T04:28:02.065Z,16.73
2019-02-04T04:29:01.928Z,16.73
2019-02-04T04:30:02.664Z,16.72
2019-02-04T04:31:02.661Z,16.71
2019-02-04T04:32:01.945Z,16.71
2019-02-04T04:33:02.508Z,16.71
2019-02-04T04:34:02.038Z,16.71
2019-02-04T04:35:03.763Z,16.73
2019-02-04T04:36:01.932Z,16.73
2019-02-04T04:37:03.330Z,16.73
2019-02-04T04:38:02.504Z,16.73
2019-02-04T04:39:02.026Z,16.73
2019-02-04T04:40:02.496Z,16.72
2019-02-04T04:41:01.860Z,16.73
2019-02-04T04:42:02.098Z,16.71
2019-02-04T04:43:04.744Z,16.71
2019-02-04T04:44:02.189Z,16.73
2019-02-04T04:45:02.561Z,16.73
2019-02-04T04:46:02.354Z,16.73
2019-02-04T04:47:01.973Z,16.74
2019-02-04T04:48:02.017Z,16.74
2019-02-04T04:49:01.948Z,16.75
2019-02-04T04:50:02.476Z,16.77
2019-02-04T04:51:03.994Z,16.76
2019-02-04T04:52:02.042Z,16.77
2019-02-04T04:53:02.306Z,16.78
2019-02-04T04:54:02.445Z,16.79
2019-02-04T04:55:01.850Z,16.8
2019-02-04T04:56:02.226Z,16.82
2019-02-04T04:57:01.981Z,16.82
2019-02-04T04:58:02.049Z,16.85
2019-02-04T04:59:02.197Z,16.86
2019-02-04T05:00:02.142Z,16.87
2019-02-04T05:01:01.939Z,16.89
2019-02-04T05:02:01.937Z,16.91
2019-02-04T05:03:02.204Z,16.92
2019-02-04T05:04:02.310Z,16.92
2019-02-04T05:05:01.958Z,16.95
2019-02-04T05:06:02.208Z,16.96
2019-02-04T05:07:01.891Z,16.98
2019-02-04T05:08:02.490Z,17
2019-02-04T05:09:02.223Z,17.03
2019-02-04T05:10:01.867Z,17.04
2019-02-04T05:11:02.053Z,17.05
2019-02-04T05:12:02.141Z,17.08
2019-02-04T05:13:01.983Z,17.1
2019-02-04T05:14:03.234Z,17.12
2019-02-04T05:15:02.145Z,17.14
2019-02-04T05:16:02.161Z,17.17
2019-02-04T05:17:02.312Z,17.19
2019-02-04T05:18:02.040Z,17.2
2019-02-04T05:19:02.518Z,17.23
2019-02-04T05:20:02.175Z,17.26
2019-02-04T05:21:01.935Z,17.28
2019-02-04T05:22:03.385Z,17.3
2019-02-04T05:23:01.914Z,17.33
2019-02-04T05:24:01.984Z,17.35
2019-02-04T05:25:02.467Z,17.36
2019-02-04T05:26:02.051Z,17.38
2019-02-04T05:27:01.841Z,17.4
2019-02-04T05:28:01.985Z,17.42
2019-02-04T05:29:02.362Z,17.43
2019-02-04T05:30:03.089Z,17.45
2019-02-04T05:31:03.844Z,17.47
2019-02-04T05:32:02.394Z,17.49
2019-02-04T05:33:02.202Z,17.5
2019-02-04T05:34:02.474Z,17.53
2019-02-04T05:35:01.958Z,17.54
2019-02-04T05:36:02.347Z,17.56
2019-02-04T05:37:02.073Z,17.56
2019-02-04T05:38:04.016Z,17.57
2019-02-04T05:39:02.086Z,17.59
2019-02-04T05:40:01.879Z,17.61
2019-02-04T05:41:02.453Z,17.62
2019-02-04T05:42:02.028Z,17.63
2019-02-04T05:43:02.287Z,17.65
2019-02-04T05:44:02.361Z,17.67
2019-02-04T05:45:02.770Z,17.67
2019-02-04T05:46:03.667Z,17.67
2019-02-04T05:47:02.288Z,17.68
2019-02-04T05:48:03.703Z,17.69
2019-02-04T05:49:02.257Z,17.71
2019-02-04T05:50:02.000Z,17.72
2019-02-04T05:51:02.500Z,17.73
2019-02-04T05:52:01.955Z,17.73
2019-02-04T05:53:02.187Z,17.73
2019-02-04T05:54:06.692Z,17.74
2019-02-04T05:55:03.174Z,17.74
2019-02-04T05:56:02.105Z,17.75
2019-02-04T05:57:02.038Z,17.76
2019-02-04T05:58:02.067Z,17.77
2019-02-04T05:59:02.077Z,17.76
2019-02-04T06:00:02.487Z,17.75
2019-02-04T06:01:01.868Z,17.76
2019-02-04T06:02:03.679Z,17.75
2019-02-04T06:03:02.723Z,17.77
2019-02-04T06:04:02.538Z,17.77
2019-02-04T06:05:02.010Z,17.78
2019-02-04T06:06:01.974Z,17.78
2019-02-04T06:07:02.079Z,17.77
2019-02-04T06:08:02.226Z,17.77
2019-02-04T06:09:02.125Z,17.78
2019-02-04T06:10:01.863Z,17.77
2019-02-04T06:11:02.430Z,17.77
2019-02-04T06:12:02.460Z,17.77
2019-02-04T06:13:02.353Z,17.76
2019-02-04T06:14:02.444Z,17.76
2019-02-04T06:15:02.421Z,17.76
2019-02-04T06:16:02.205Z,17.75
2019-02-04T06:17:02.508Z,17.75
2019-02-04T06:18:02.445Z,17.76
2019-02-04T06:19:02.226Z,17.76
2019-02-04T06:20:03.560Z,17.75
2019-02-04T06:21:01.966Z,17.75
2019-02-04T06:22:01.904Z,17.74
2019-02-04T06:23:01.845Z,17.75
2019-02-04T06:24:04.164Z,17.74
2019-02-04T06:25:03.154Z,17.73
2019-02-04T06:26:01.994Z,17.73
2019-02-04T06:27:02.069Z,17.73
2019-02-04T06:28:02.308Z,17.72
2019-02-04T06:29:02.428Z,17.72
2019-02-04T06:30:02.244Z,17.72
2019-02-04T06:31:02.006Z,17.71
2019-02-04T06:32:01.954Z,17.71
2019-02-04T06:33:03.396Z,17.7
2019-02-04T06:34:02.329Z,17.7
2019-02-04T06:35:01.984Z,17.7
2019-02-04T06:36:02.138Z,17.7
2019-02-04T06:37:03.917Z,17.69
2019-02-04T06:38:01.891Z,17.69
2019-02-04T06:39:02.189Z,17.68
2019-02-04T06:40:02.082Z,17.67
2019-02-04T06:41:03.759Z,17.67
2019-02-04T06:42:02.690Z,17.67
2019-02-04T06:43:01.911Z,17.66
2019-02-04T06:44:01.999Z,17.66
2019-02-04T06:45:02.195Z,17.66
2019-02-04T06:46:01.850Z,17.65
2019-02-04T06:47:02.136Z,17.65
2019-02-04T06:48:02.006Z,17.65
2019-02-04T06:49:12.882Z,17.64
2019-02-04T06:50:02.039Z,17.65
2019-02-04T06:51:02.488Z,17.64
2019-02-04T06:52:02.352Z,17.62
2019-02-04T06:53:02.247Z,17.62
2019-02-04T06:54:01.938Z,17.61
2019-02-04T06:55:02.108Z,17.62
2019-02-04T06:56:02.590Z,17.61
2019-02-04T06:57:04.181Z,17.61
2019-02-04T06:58:01.856Z,17.54
2019-02-04T06:59:02.409Z,17.27
2019-02-04T07:00:01.883Z,17.13
2019-02-04T07:01:02.641Z,16.98
2019-02-04T07:02:02.971Z,16.84
2019-02-04T07:03:02.903Z,16.73
2019-02-04T07:04:02.233Z,16.56
2019-02-04T07:05:02.497Z,16.53
2019-02-04T07:06:03.108Z,16.59
2019-02-04T07:07:02.856Z,16.66
2019-02-04T07:08:01.876Z,16.72
2019-02-04T07:09:02.515Z,16.78
2019-02-04T07:10:01.798Z,16.83
2019-02-04T07:11:02.167Z,16.87
2019-02-04T07:12:03.984Z,16.92
2019-02-04T07:13:02.192Z,16.95
2019-02-04T07:14:02.306Z,16.99
2019-02-04T07:15:02.053Z,17.02
2019-02-04T07:16:02.173Z,17.05
2019-02-04T07:17:02.554Z,17.09
2019-02-04T07:18:02.750Z,17.12
2019-02-04T07:19:01.933Z,17.15
2019-02-04T07:20:04.246Z,17.17
2019-02-04T07:21:01.858Z,17.21
2019-02-04T07:22:03.201Z,17.24
2019-02-04T07:23:02.260Z,17.26
2019-02-04T07:24:03.082Z,17.29
2019-02-04T07:25:03.341Z,17.33
2019-02-04T07:26:02.054Z,17.35
2019-02-04T07:27:01.799Z,17.37
2019-02-04T07:28:02.228Z,17.39
2019-02-04T07:29:02.787Z,17.42
2019-02-04T07:30:02.072Z,17.45
2019-02-04T07:31:02.673Z,17.48
2019-02-04T07:32:01.930Z,17.48
2019-02-04T07:33:03.109Z,17.51
2019-02-04T07:34:02.099Z,17.52
2019-02-04T07:35:03.433Z,17.54
2019-02-04T07:36:03.854Z,17.57
2019-02-04T07:37:02.096Z,17.59
2019-02-04T07:38:01.833Z,17.61
2019-02-04T07:39:02.386Z,17.62
2019-02-04T07:40:01.962Z,17.64
2019-02-04T07:41:01.911Z,17.67
2019-02-04T07:42:01.802Z,17.68
2019-02-04T07:43:04.005Z,17.7
2019-02-04T07:44:02.166Z,17.71
2019-02-04T07:45:02.102Z,17.73
2019-02-04T07:46:01.932Z,17.74
2019-02-04T07:47:02.946Z,17.75
2019-02-04T07:48:01.893Z,17.78
2019-02-04T07:49:01.939Z,17.79
2019-02-04T07:50:02.154Z,17.8
2019-02-04T07:51:04.368Z,17.82
2019-02-04T07:52:02.338Z,17.83
2019-02-04T07:53:02.228Z,17.84
2019-02-04T07:54:02.216Z,17.85
2019-02-04T07:55:02.293Z,17.86
2019-02-04T07:56:02.028Z,17.87
2019-02-04T07:57:03.828Z,17.89
2019-02-04T07:58:02.213Z,17.9
2019-02-04T07:59:03.198Z,17.91
2019-02-04T08:00:02.004Z,17.92
2019-02-04T08:01:02.227Z,17.92
2019-02-04T08:02:01.811Z,17.94
2019-02-04T08:03:02.765Z,17.95
2019-02-04T08:04:01.837Z,17.97
2019-02-04T08:05:02.398Z,17.98
2019-02-04T08:06:02.407Z,17.99
2019-02-04T08:07:05.507Z,18
2019-02-04T08:08:01.993Z,18
2019-02-04T08:09:01.987Z,18.01
2019-02-04T08:10:02.199Z,18.02
2019-02-04T08:11:02.763Z,18.02
2019-02-04T08:12:02.267Z,18.04
2019-02-04T08:13:02.385Z,18.05
2019-02-04T08:14:03.101Z,18.05
2019-02-04T08:15:01.857Z,18.06
2019-02-04T08:16:01.947Z,18.08
2019-02-04T08:17:01.975Z,18.08
2019-02-04T08:18:02.778Z,18.09
2019-02-04T08:19:02.167Z,18.1
2019-02-04T08:20:01.761Z,18.1
2019-02-04T08:21:01.796Z,18.11
2019-02-04T08:22:03.677Z,18.11
2019-02-04T08:23:01.781Z,18.11
2019-02-04T08:24:01.875Z,18.13
2019-02-04T08:25:03.161Z,18.13
2019-02-04T08:26:02.246Z,18.14
2019-02-04T08:27:02.378Z,18.14
2019-02-04T08:28:02.012Z,18.15
2019-02-04T08:29:02.162Z,18.16
2019-02-04T08:30:03.937Z,18.16
2019-02-04T08:31:02.290Z,18.17
2019-02-04T08:32:02.497Z,18.18
2019-02-04T08:33:03.171Z,18.2
2019-02-04T08:34:01.844Z,18.2
2019-02-04T08:35:02.309Z,18.2
2019-02-04T08:36:02.773Z,18.21
2019-02-04T08:37:02.564Z,18.21
2019-02-04T08:38:02.976Z,18.22
2019-02-04T08:39:02.118Z,18.22
2019-02-04T08:40:02.104Z,18.23
2019-02-04T08:41:02.193Z,18.23
2019-02-04T08:42:02.125Z,18.23
2019-02-04T08:43:02.048Z,18.24
2019-02-04T08:44:02.707Z,18.24
2019-02-04T08:45:04.148Z,18.25
2019-02-04T08:46:01.803Z,18.25
2019-02-04T08:47:02.631Z,18.26
2019-02-04T08:48:02.011Z,18.26
2019-02-04T08:49:02.755Z,18.27
2019-02-04T08:50:02.561Z,18.27
2019-02-04T08:51:02.103Z,18.28
2019-02-04T08:52:01.823Z,18.29
2019-02-04T08:53:02.300Z,18.29
2019-02-04T08:54:02.040Z,18.29
2019-02-04T08:55:02.190Z,18.29
2019-02-04T08:56:01.809Z,18.29
2019-02-04T08:57:02.721Z,18.3
2019-02-04T08:58:02.285Z,18.31
2019-02-04T08:59:02.504Z,18.32
2019-02-04T09:00:04.672Z,18.33
2019-02-04T09:01:02.250Z,18.33
2019-02-04T09:02:02.004Z,18.33
2019-02-04T09:03:01.923Z,18.33
2019-02-04T09:04:01.957Z,18.34
2019-02-04T09:05:01.934Z,18.34
2019-02-04T09:06:01.838Z,18.32
2019-02-04T09:07:01.986Z,18.39
2019-02-04T09:08:03.398Z,18.4
2019-02-04T09:09:02.665Z,18.41
2019-02-04T09:10:02.371Z,18.42
2019-02-04T09:11:02.831Z,18.42
2019-02-04T09:12:01.979Z,18.42
2019-02-04T09:13:02.294Z,18.45
2019-02-04T09:14:02.223Z,18.45
2019-02-04T09:15:03.657Z,18.46
2019-02-04T09:16:02.351Z,18.47
2019-02-04T09:17:02.238Z,18.48
2019-02-04T09:18:02.241Z,18.48
2019-02-04T09:19:01.928Z,18.5
2019-02-04T09:20:10.750Z,18.51
2019-02-04T09:21:02.170Z,18.52
2019-02-04T09:22:02.288Z,18.54
2019-02-04T09:23:07.708Z,18.54
2019-02-04T09:24:02.173Z,18.55
2019-02-04T09:25:03.905Z,18.54
2019-02-04T09:26:02.096Z,18.54
2019-02-04T09:27:03.536Z,18.55
2019-02-04T09:28:01.835Z,18.55
2019-02-04T09:29:01.866Z,18.58
2019-02-04T09:30:02.447Z,18.6
2019-02-04T09:31:01.726Z,18.6
2019-02-04T09:32:01.942Z,18.61
2019-02-04T09:33:02.051Z,18.61
2019-02-04T09:34:01.888Z,18.6
2019-02-04T09:35:02.892Z,18.59
2019-02-04T09:36:02.413Z,18.59
2019-02-04T09:37:03.302Z,18.58
2019-02-04T09:38:04.782Z,18.57
2019-02-04T09:39:02.398Z,18.59
2019-02-04T09:40:02.019Z,18.59
2019-02-04T09:41:01.655Z,18.58
2019-02-04T09:42:02.012Z,18.57
2019-02-04T09:43:02.346Z,18.57
2019-02-04T09:44:02.041Z,18.57
2019-02-04T09:45:02.081Z,18.58
2019-02-04T09:46:04.084Z,18.57
2019-02-04T09:47:01.744Z,18.58
2019-02-04T09:48:02.534Z,18.57
2019-02-04T09:49:01.955Z,18.57
2019-02-04T09:50:02.310Z,18.55
2019-02-04T09:51:01.969Z,18.6
2019-02-04T09:52:01.954Z,18.57
2019-02-04T09:53:02.155Z,18.58
2019-02-04T09:54:02.426Z,18.57
2019-02-04T09:55:02.167Z,18.57
2019-02-04T09:56:02.388Z,18.58
2019-02-04T09:57:01.708Z,18.57
2019-02-04T09:58:02.173Z,18.58
2019-02-04T09:59:02.150Z,18.59
2019-02-04T10:00:02.312Z,18.58
2019-02-04T10:01:04.783Z,18.6
2019-02-04T10:02:02.001Z,18.6
2019-02-04T10:03:02.658Z,18.6
2019-02-04T10:04:02.226Z,18.6
2019-02-04T10:05:02.256Z,18.6
2019-02-04T10:06:02.004Z,18.6
2019-02-04T10:07:02.258Z,18.6
2019-02-04T10:08:01.815Z,18.62
2019-02-04T10:09:03.432Z,18.61
2019-02-04T10:10:02.680Z,18.61
2019-02-04T10:11:02.278Z,18.63
2019-02-04T10:12:03.784Z,18.62
2019-02-04T10:13:02.340Z,18.63
2019-02-04T10:14:02.593Z,18.63
2019-02-04T10:15:02.610Z,18.66
2019-02-04T10:16:02.817Z,18.65
2019-02-04T10:17:04.215Z,18.66
2019-02-04T10:18:03.606Z,18.66
2019-02-04T10:19:02.308Z,18.68
2019-02-04T10:20:02.605Z,18.7
2019-02-04T10:21:02.737Z,18.69
2019-02-04T10:22:02.199Z,18.69
2019-02-04T10:23:02.509Z,18.69
2019-02-04T10:24:02.114Z,18.69
2019-02-04T10:25:04.179Z,18.68
2019-02-04T10:26:02.647Z,18.69
2019-02-04T10:27:02.684Z,18.7
2019-02-04T10:28:02.374Z,18.71
2019-02-04T10:29:02.568Z,18.71
2019-02-04T10:30:02.204Z,18.72
2019-02-04T10:31:02.521Z,18.72
2019-02-04T10:32:02.359Z,18.72
2019-02-04T10:33:03.810Z,18.72
2019-02-04T10:34:03.110Z,18.73
2019-02-04T10:35:02.398Z,18.73
2019-02-04T10:36:02.741Z,18.74
2019-02-04T10:37:02.403Z,18.74
2019-02-04T10:38:02.822Z,18.74
2019-02-04T10:39:03.532Z,18.74
2019-02-04T10:40:02.938Z,18.74
2019-02-04T10:41:04.383Z,18.75
2019-02-04T10:42:02.169Z,18.76
2019-02-04T10:43:02.672Z,18.77
2019-02-04T10:44:02.674Z,18.77
2019-02-04T10:45:04.251Z,18.78
2019-02-04T10:46:05.726Z,18.78
2019-02-04T10:47:02.116Z,18.78
2019-02-04T10:48:02.792Z,18.79
2019-02-04T10:49:02.288Z,19.21
2019-02-04T10:50:02.527Z,19.24
2019-02-04T10:51:02.301Z,19.15
2019-02-04T10:52:02.639Z,19.15
2019-02-04T10:53:02.032Z,19.15
2019-02-04T10:54:02.783Z,19.15
2019-02-04T10:55:02.318Z,19.13
2019-02-04T10:56:03.815Z,19.11
2019-02-04T10:57:02.716Z,19.1
2019-02-04T10:58:02.662Z,19.09
2019-02-04T10:59:02.692Z,19.09
2019-02-04T11:00:02.695Z,19.07
2019-02-04T11:01:02.437Z,19.05
2019-02-04T11:02:02.102Z,19.03
2019-02-04T11:03:02.902Z,19.02
2019-02-04T11:04:03.739Z,19.01
2019-02-04T11:05:03.030Z,18.98
2019-02-04T11:06:02.204Z,18.97
2019-02-04T11:07:02.819Z,18.97
2019-02-04T11:08:02.647Z,18.96
2019-02-04T11:09:02.440Z,18.94
2019-02-04T11:10:04.302Z,18.92
2019-02-04T11:11:02.171Z,18.91
2019-02-04T11:12:04.499Z,18.9
2019-02-04T11:13:02.791Z,18.89
2019-02-04T11:14:04.122Z,18.87
2019-02-04T11:15:03.088Z,18.86
2019-02-04T11:16:02.276Z,18.86
2019-02-04T11:17:02.722Z,18.86
2019-02-04T11:18:02.293Z,18.85
2019-02-04T11:19:02.424Z,18.85
2019-02-04T11:20:04.251Z,18.85
2019-02-04T11:21:02.751Z,18.84
2019-02-04T11:22:04.304Z,18.84
2019-02-04T11:23:02.941Z,18.83
2019-02-04T11:24:02.323Z,18.83
2019-02-04T11:25:03.248Z,18.82
2019-02-04T11:26:03.152Z,18.82
2019-02-04T11:27:02.437Z,18.82
2019-02-04T11:28:02.176Z,18.8
2019-02-04T11:29:02.985Z,18.79
2019-02-04T11:30:02.843Z,18.8
2019-02-04T11:31:03.748Z,18.78
2019-02-04T11:32:02.498Z,18.77
2019-02-04T11:33:02.970Z,18.75
2019-02-04T11:34:02.961Z,18.75
2019-02-04T11:35:03.162Z,18.74
2019-02-04T11:36:02.033Z,18.72
2019-02-04T11:37:02.716Z,18.71
2019-02-04T11:38:02.509Z,18.71
2019-02-04T11:39:02.224Z,18.69
2019-02-04T11:40:02.764Z,18.68
2019-02-04T11:41:02.667Z,18.68
2019-02-04T11:42:01.983Z,18.66
2019-02-04T11:43:04.011Z,18.66
2019-02-04T11:44:02.084Z,18.66
2019-02-04T11:45:03.231Z,18.65
2019-02-04T11:46:02.941Z,18.63
2019-02-04T11:47:02.707Z,18.61
2019-02-04T11:48:03.218Z,18.61
2019-02-04T11:49:02.562Z,18.61
2019-02-04T11:50:02.277Z,18.6
2019-02-04T11:51:10.379Z,18.6
2019-02-04T11:52:02.487Z,18.59
2019-02-04T11:53:01.946Z,18.59
2019-02-04T11:54:02.279Z,18.58
2019-02-04T11:55:01.874Z,18.57
2019-02-04T11:56:02.314Z,18.56
2019-02-04T11:57:02.805Z,18.55
2019-02-04T11:58:02.539Z,18.54
2019-02-04T11:59:03.812Z,18.54
2019-02-04T12:00:02.645Z,18.52
2019-02-04T12:01:02.467Z,18.51
2019-02-04T12:02:02.014Z,18.48
2019-02-04T12:03:02.395Z,18.48
2019-02-04T12:04:02.038Z,18.47
2019-02-04T12:05:02.068Z,18.46
2019-02-04T12:06:02.068Z,18.44
2019-02-04T12:07:02.041Z,18.44
2019-02-04T12:08:01.904Z,18.43
2019-02-04T12:09:02.844Z,18.43
2019-02-04T12:10:02.541Z,18.42
2019-02-04T12:11:02.374Z,18.41
2019-02-04T12:12:02.326Z,18.41
2019-02-04T12:13:02.179Z,18.4
2019-02-04T12:14:02.329Z,18.4
2019-02-04T12:15:02.237Z,18.4
2019-02-04T12:16:02.044Z,18.39
2019-02-04T12:17:02.014Z,18.38
2019-02-04T12:18:01.939Z,18.37
2019-02-04T12:19:02.588Z,18.37
2019-02-04T12:20:01.843Z,18.38
2019-02-04T12:21:02.306Z,18.38
2019-02-04T12:22:04.233Z,18.36
2019-02-04T12:23:02.425Z,18.35
2019-02-04T12:24:01.763Z,18.35
2019-02-04T12:25:02.007Z,18.35
2019-02-04T12:26:01.838Z,18.35
2019-02-04T12:27:02.128Z,18.35
2019-02-04T12:28:02.088Z,18.35
2019-02-04T12:29:02.025Z,18.35
2019-02-04T12:30:03.730Z,18.35
2019-02-04T12:31:02.147Z,18.35
2019-02-04T12:32:02.112Z,18.35
2019-02-04T12:33:02.371Z,18.35
2019-02-04T12:34:02.190Z,18.35
2019-02-04T12:35:01.954Z,18.35
2019-02-04T12:36:02.566Z,18.35
2019-02-04T12:37:02.479Z,18.35
2019-02-04T12:38:04.915Z,18.35
2019-02-04T12:39:01.861Z,18.35
2019-02-04T12:40:02.374Z,18.35
2019-02-04T12:41:01.904Z,18.34
2019-02-04T12:42:02.158Z,18.35
2019-02-04T12:43:02.084Z,18.35
2019-02-04T12:44:02.439Z,18.35
2019-02-04T12:45:02.521Z,18.35
2019-02-04T12:46:01.720Z,18.36
2019-02-04T12:47:02.570Z,18.36
2019-02-04T12:48:01.760Z,18.35
2019-02-04T12:49:02.522Z,18.36
2019-02-04T12:50:02.362Z,18.36
2019-02-04T12:51:01.749Z,18.35
2019-02-04T12:52:02.079Z,18.35
2019-02-04T12:53:03.897Z,18.35
2019-02-04T12:54:02.109Z,18.36
2019-02-04T12:55:02.333Z,18.35